createdAt,value
2022-08-09T00:00:14.840Z,2.72
2022-08-09T00:02:50.025Z,1.98
2022-08-09T00:06:18.348Z,1.95
2022-08-09T00:08:13.113Z,4.55
2022-08-09T00:11:00.345Z,3.25
2022-08-09T00:13:31.706Z,2.80
2022-08-09T00:16:02.850Z,2.25
2022-08-09T00:18:36.244Z,4.70
2022-08-09T00:21:07.944Z,3.00
2022-08-09T00:23:54.874Z,4.70
2022-08-09T00:26:32.767Z,2.92
2022-08-09T00:29:02.389Z,2.88
2022-08-09T00:32:00.957Z,2.38
2022-08-09T00:34:24.681Z,4.38
2022-08-09T00:36:53.669Z,2.35
2022-08-09T00:40:13.836Z,3.53
2022-08-09T00:44:15.995Z,3.67
2022-08-09T00:44:57.983Z,2.75
2022-08-09T00:47:26.043Z,3.58
2022-08-09T00:50:03.135Z,2.72
2022-08-09T00:52:31.151Z,5.05
2022-08-09T00:55:01.157Z,2.97
2022-08-09T00:57:34.814Z,3.30
2022-08-09T01:00:22.092Z,2.63
2022-08-09T01:03:15.312Z,3.30
2022-08-09T01:05:56.964Z,4.05
2022-08-09T01:08:49.435Z,2.65
2022-08-09T01:11:32.409Z,3.90
2022-08-09T01:14:15.156Z,3.90
2022-08-09T01:16:49.384Z,3.50
2022-08-09T01:19:39.700Z,4.82
2022-08-09T01:22:23.663Z,4.43
2022-08-09T01:25:12.357Z,2.92
2022-08-09T01:27:44.603Z,3.33
2022-08-09T01:30:33.646Z,6.50
2022-08-09T01:33:12.489Z,4.55
2022-08-09T01:35:53.492Z,3.97
2022-08-09T01:38:26.129Z,2.97
2022-08-09T01:41:05.630Z,3.03
2022-08-09T01:43:42.277Z,3.88
2022-08-09T01:46:26.765Z,4.93
2022-08-09T01:49:10.177Z,3.90
2022-08-09T01:54:18.522Z,3.20
2022-08-09T01:56:51.721Z,2.90
2022-08-09T02:01:59.442Z,5.22
2022-08-09T02:04:30.018Z,4.38
2022-08-09T02:07:18.245Z,3.70
2022-08-09T02:10:13.522Z,2.83
2022-08-09T02:12:43.631Z,3.70
2022-08-09T02:15:17.005Z,3.17
2022-08-09T02:18:01.630Z,3.55
2022-08-09T02:20:41.495Z,2.92
2022-08-09T02:25:55.651Z,5.13
2022-08-09T02:28:34.341Z,3.60
2022-08-09T02:31:18.858Z,3.95
2022-08-09T02:34:06.788Z,5.07
2022-08-09T02:36:41.989Z,4.63
2022-08-09T02:39:20.031Z,3.17
2022-08-09T02:42:08.678Z,3.78
2022-08-09T02:44:42.558Z,4.10
2022-08-09T02:47:14.020Z,3.00
2022-08-09T02:50:01.132Z,4.25
2022-08-09T02:52:39.534Z,5.25
2022-08-09T02:55:19.831Z,5.03
2022-08-09T02:58:00.342Z,3.97
2022-08-09T03:00:58.219Z,4.32
2022-08-09T03:03:59.619Z,2.70
2022-08-09T03:06:22.778Z,3.20
2022-08-09T03:08:53.808Z,3.47
2022-08-09T03:12:04.281Z,3.42
2022-08-09T03:14:13.828Z,3.13
2022-08-09T03:16:48.322Z,4.53
2022-08-09T03:19:57.618Z,5.47
2022-08-09T03:22:12.321Z,2.97
2022-08-09T03:25:03.320Z,4.03
2022-08-09T03:27:51.014Z,4.03
2022-08-09T03:30:29.364Z,5.28
2022-08-09T03:33:17.238Z,5.03
2022-08-09T03:36:13.348Z,3.92
2022-08-09T03:38:43.033Z,3.90
2022-08-09T03:41:15.472Z,4.07
2022-08-09T03:44:02.882Z,4.03
2022-08-09T03:46:33.185Z,3.22
2022-08-09T03:49:04.046Z,5.32
2022-08-09T03:51:44.052Z,4.90
2022-08-09T03:54:31.360Z,3.92
2022-08-09T03:57:17.933Z,4.18
2022-08-09T03:59:53.365Z,4.80
2022-08-09T04:02:26.617Z,4.30
2022-08-09T04:05:06.687Z,5.05
2022-08-09T04:07:56.589Z,3.80
2022-08-09T04:10:30.563Z,5.85
2022-08-09T04:13:03.961Z,5.18
2022-08-09T04:16:18.208Z,4.82
2022-08-09T04:18:21.379Z,5.57
2022-08-09T04:20:54.592Z,5.18
2022-08-09T04:23:24.442Z,3.90
2022-08-09T04:25:53.542Z,3.70
2022-08-09T04:28:33.043Z,6.07
2022-08-09T04:31:05.916Z,4.82
2022-08-09T04:33:51.754Z,6.72
2022-08-09T04:36:25.989Z,4.75
2022-08-09T04:38:59.187Z,6.28
2022-08-09T04:41:33.147Z,6.57
2022-08-09T04:44:06.937Z,6.10
2022-08-09T04:47:00.203Z,4.78
2022-08-09T04:49:52.623Z,7.22
2022-08-09T04:52:27.830Z,7.85
2022-08-09T04:55:00.488Z,6.28
2022-08-09T05:00:16.810Z,4.20
2022-08-09T05:02:48.655Z,6.60
2022-08-09T05:05:31.718Z,4.75
2022-08-09T05:08:14.015Z,5.38
2022-08-09T05:10:42.769Z,6.03
2022-08-09T05:13:12.611Z,3.92
2022-08-09T05:15:48.350Z,4.22
2022-08-09T05:18:42.869Z,5.95
2022-08-09T05:21:24.321Z,4.78
2022-08-09T05:23:58.030Z,8.00
2022-08-09T05:26:36.408Z,5.90
2022-08-09T05:29:17.397Z,5.72
2022-08-09T05:31:56.405Z,5.88
2022-08-09T05:34:31.030Z,6.05
2022-08-09T05:37:07.041Z,6.70
2022-08-09T05:39:44.196Z,8.27
2022-08-09T05:42:17.448Z,6.75
2022-08-09T05:44:54.000Z,7.53
2022-08-09T05:47:23.784Z,6.53
2022-08-09T05:50:30.835Z,8.93
2022-08-09T05:52:42.264Z,7.47
2022-08-09T05:55:20.975Z,8.70
2022-08-09T05:57:56.337Z,6.55
2022-08-09T06:00:32.903Z,8.40
2022-08-09T06:03:03.511Z,7.65
2022-08-09T06:05:57.074Z,9.88
2022-08-09T06:08:24.693Z,8.05
2022-08-09T06:10:56.162Z,7.32
2022-08-09T06:13:25.686Z,6.70
2022-08-09T06:15:55.784Z,8.35
2022-08-09T06:18:25.617Z,7.20
2022-08-09T06:20:57.635Z,6.72
2022-08-09T06:23:57.936Z,7.22
2022-08-09T06:26:22.208Z,5.75
2022-08-09T06:29:04.574Z,7.93
2022-08-09T06:31:40.095Z,7.22
2022-08-09T06:34:22.676Z,8.32
2022-08-09T06:36:59.103Z,11.63
2022-08-09T06:39:48.181Z,7.95
2022-08-09T06:42:24.415Z,8.23
2022-08-09T06:44:58.389Z,7.13
2022-08-09T06:47:39.448Z,6.13
2022-08-09T06:50:13.610Z,5.20
2022-08-09T06:52:48.850Z,6.85
2022-08-09T06:55:22.462Z,6.03
2022-08-09T06:58:02.867Z,6.55
2022-08-09T07:00:49.736Z,4.72
2022-08-09T07:03:27.815Z,6.15
2022-08-09T07:06:03.802Z,4.60
2022-08-09T07:08:34.382Z,4.72
2022-08-09T07:11:03.587Z,5.50
2022-08-09T07:13:31.391Z,6.28
2022-08-09T07:16:42.429Z,6.22
2022-08-09T07:19:02.771Z,4.20
2022-08-09T07:21:31.230Z,7.65
2022-08-09T07:24:02.037Z,5.72
2022-08-09T07:26:35.210Z,4.80
2022-08-09T07:29:11.914Z,6.32
2022-08-09T07:31:45.175Z,5.88
2022-08-09T07:34:20.517Z,5.20
2022-08-09T07:36:50.315Z,4.63
2022-08-09T07:39:40.952Z,6.88
2022-08-09T07:42:09.297Z,5.72
2022-08-09T07:44:52.473Z,6.43
2022-08-09T07:47:23.263Z,7.47
2022-08-09T07:50:08.200Z,3.70
2022-08-09T07:52:38.320Z,5.30
2022-08-09T07:55:09.489Z,4.13
2022-08-09T07:57:37.530Z,3.72
2022-08-09T08:00:35.931Z,5.70
2022-08-09T08:03:04.840Z,4.90
2022-08-09T08:05:53.608Z,4.40
2022-08-09T08:09:00.513Z,6.00
2022-08-09T08:12:08.874Z,4.78
2022-08-09T08:13:56.623Z,5.90
2022-08-09T08:16:31.471Z,3.40
2022-08-09T08:19:03.050Z,3.22
2022-08-09T08:21:32.086Z,5.55
2022-08-09T08:24:01.217Z,5.90
2022-08-09T08:26:54.456Z,10.20
2022-08-09T08:29:20.453Z,5.00
2022-08-09T08:32:04.028Z,4.82
2022-08-09T08:34:36.068Z,5.47
2022-08-09T08:37:04.967Z,4.18
2022-08-09T08:39:38.229Z,4.35
2022-08-09T08:42:15.770Z,5.65
2022-08-09T08:44:44.086Z,5.90
2022-08-09T08:47:16.778Z,3.50
2022-08-09T08:49:48.272Z,3.70
2022-08-09T08:55:19.040Z,2.80
2022-08-09T08:57:56.512Z,6.45
2022-08-09T09:00:30.492Z,2.15
2022-08-09T09:03:11.215Z,2.95
2022-08-09T09:06:02.974Z,2.53
2022-08-09T09:08:37.887Z,7.70
2022-08-09T09:11:17.188Z,2.03
2022-08-09T09:13:57.621Z,4.78
2022-08-09T09:16:34.906Z,2.42
2022-08-09T09:19:40.668Z,2.38
2022-08-09T09:22:16.081Z,2.28
2022-08-09T09:25:00.761Z,4.00
2022-08-09T09:28:05.905Z,3.50
2022-08-09T09:30:40.067Z,1.55
2022-08-09T09:33:15.863Z,5.60
2022-08-09T09:36:01.606Z,4.88
2022-08-09T09:38:42.913Z,1.45
2022-08-09T09:41:10.902Z,3.35
2022-08-09T09:43:41.459Z,2.10
2022-08-09T09:46:42.850Z,3.33
2022-08-09T09:49:18.718Z,2.63
2022-08-09T09:52:33.459Z,2.97
2022-08-09T09:55:24.305Z,2.10
2022-08-09T09:58:16.951Z,2.88
2022-08-09T10:00:54.059Z,4.13
2022-08-09T10:03:58.121Z,2.95
2022-08-09T10:06:42.812Z,2.63
2022-08-09T10:09:22.564Z,2.38
2022-08-09T10:12:14.355Z,5.38
2022-08-09T10:14:51.496Z,3.05
2022-08-09T10:17:50.895Z,3.80
2022-08-09T10:20:27.111Z,1.95
2022-08-09T10:23:20.467Z,2.95
2022-08-09T10:26:07.110Z,2.47
2022-08-09T10:28:40.257Z,4.53
2022-08-09T10:34:08.729Z,2.88
2022-08-09T10:36:49.826Z,2.80
2022-08-09T10:39:19.473Z,2.80
2022-08-09T10:41:47.568Z,5.07
2022-08-09T10:44:24.789Z,2.47
2022-08-09T10:47:14.145Z,3.20
2022-08-09T10:50:31.267Z,1.55
2022-08-09T10:53:10.694Z,3.72
2022-08-09T10:55:55.476Z,3.08
2022-08-09T10:58:34.824Z,2.38
2022-08-09T11:03:02.187Z,2.85
2022-08-09T11:04:31.726Z,3.08
2022-08-09T11:07:02.946Z,2.42
2022-08-09T11:09:47.379Z,2.95
2022-08-09T11:12:29.569Z,2.88
2022-08-09T11:15:18.945Z,2.42
2022-08-09T11:17:56.815Z,1.80
2022-08-09T11:20:49.772Z,2.33
2022-08-09T11:23:24.045Z,2.38
2022-08-09T11:25:57.443Z,4.90
2022-08-09T11:28:34.638Z,1.48
2022-08-09T11:31:50.488Z,2.20
2022-08-09T11:34:44.026Z,1.98
2022-08-09T11:37:25.345Z,1.52
2022-08-09T11:40:05.018Z,2.92
2022-08-09T11:42:48.687Z,3.38
2022-08-09T11:45:37.885Z,7.07
2022-08-09T11:48:28.130Z,3.38
2022-08-09T11:52:48.826Z,2.65
2022-08-09T11:54:34.710Z,1.73
2022-08-09T11:57:47.416Z,2.83
2022-08-09T12:00:28.137Z,2.15
2022-08-09T12:02:58.345Z,3.72
2022-08-09T12:05:42.319Z,1.50
2022-08-09T12:08:21.679Z,2.80
2022-08-09T12:10:55.314Z,2.38
2022-08-09T12:16:37.813Z,2.92
2022-08-09T12:19:09.665Z,2.55
2022-08-09T12:21:50.358Z,2.05
2022-08-09T12:24:26.342Z,1.95
2022-08-09T12:29:10.988Z,2.30
2022-08-09T12:30:01.846Z,2.22
2022-08-09T12:32:42.182Z,2.85
2022-08-09T12:35:12.357Z,1.63
2022-08-09T12:37:49.993Z,1.77
2022-08-09T12:40:23.308Z,1.50
2022-08-09T12:42:53.498Z,4.35
2022-08-09T12:45:34.267Z,4.68
2022-08-09T12:48:20.431Z,1.73
2022-08-09T12:50:59.379Z,1.67
2022-08-09T12:53:37.662Z,4.68
2022-08-09T12:56:39.645Z,2.28
2022-08-09T12:59:20.877Z,1.77
2022-08-09T13:02:01.874Z,1.80
2022-08-09T13:04:37.664Z,1.58
2022-08-09T13:07:14.320Z,2.92
2022-08-09T13:09:43.447Z,1.17
2022-08-09T13:12:22.453Z,2.00
2022-08-09T13:14:53.631Z,1.55
2022-08-09T13:17:44.471Z,2.45
2022-08-09T13:20:20.234Z,1.25
2022-08-09T13:23:05.204Z,3.10
2022-08-09T13:25:54.790Z,1.90
2022-08-09T13:28:33.657Z,2.80
2022-08-09T13:32:14.406Z,2.60
2022-08-09T13:33:59.156Z,1.80
2022-08-09T13:36:41.713Z,2.83
2022-08-09T13:41:19.071Z,0.95
2022-08-09T13:42:15.302Z,1.02
2022-08-09T13:44:44.218Z,1.08
2022-08-09T13:47:31.182Z,1.40
2022-08-09T13:50:18.263Z,2.85
2022-08-09T13:52:55.138Z,1.20
2022-08-09T13:55:22.769Z,0.95
2022-08-09T13:57:56.099Z,0.80
2022-08-09T14:00:29.738Z,3.45
2022-08-09T14:03:04.462Z,1.38
2022-08-09T14:05:59.816Z,1.00
2022-08-09T14:08:30.426Z,2.42
2022-08-09T14:10:58.017Z,2.47
2022-08-09T14:14:22.356Z,2.05
2022-08-09T14:16:28.372Z,3.13
2022-08-09T14:18:57.172Z,1.00
2022-08-09T14:21:32.212Z,1.80
2022-08-09T14:24:05.440Z,2.65
2022-08-09T14:26:38.012Z,3.38
2022-08-09T14:29:25.758Z,1.23
2022-08-09T14:31:57.544Z,2.50
2022-08-09T14:34:31.263Z,0.60
2022-08-09T14:37:07.541Z,1.50
2022-08-09T14:39:47.993Z,1.20
2022-08-09T14:42:30.951Z,1.08
2022-08-09T14:46:56.032Z,1.63
2022-08-09T14:47:57.494Z,1.95
2022-08-09T14:50:32.540Z,2.60
2022-08-09T14:53:06.378Z,1.83
2022-08-09T14:55:49.880Z,1.48
2022-08-09T14:58:20.586Z,1.52
2022-08-09T15:00:52.076Z,3.90
2022-08-09T15:03:20.905Z,2.63
2022-08-09T15:05:56.735Z,2.90
2022-08-09T15:08:25.681Z,0.80
2022-08-09T15:11:00.691Z,2.05
2022-08-09T15:13:47.813Z,0.90
2022-08-09T15:16:16.721Z,1.15
2022-08-09T15:18:43.993Z,2.10
2022-08-09T15:21:56.063Z,1.67
2022-08-09T15:24:12.701Z,0.98
2022-08-09T15:26:46.763Z,0.93
2022-08-09T15:30:55.875Z,1.40
2022-08-09T15:32:02.923Z,1.05
2022-08-09T15:34:34.585Z,1.35
2022-08-09T15:37:23.815Z,2.28
2022-08-09T15:39:54.811Z,3.00
2022-08-09T15:42:22.842Z,1.38
2022-08-09T15:44:53.573Z,2.78
2022-08-09T15:47:31.855Z,1.00
2022-08-09T15:50:14.830Z,1.85
2022-08-09T15:52:54.650Z,1.02
2022-08-09T15:55:31.416Z,1.83
2022-08-09T15:58:27.337Z,2.17
2022-08-09T16:00:56.776Z,2.30
2022-08-09T16:03:29.459Z,2.42
2022-08-09T16:06:06.785Z,2.28
2022-08-09T16:08:59.132Z,1.00
2022-08-09T16:11:33.693Z,4.43
2022-08-09T16:14:07.695Z,2.72
2022-08-09T16:16:41.994Z,1.40
2022-08-09T16:19:19.312Z,1.65
2022-08-09T16:21:52.050Z,1.15
2022-08-09T16:24:33.022Z,3.28
2022-08-09T16:27:05.212Z,1.15
2022-08-09T16:29:37.022Z,1.20
2022-08-09T16:32:18.803Z,1.58
2022-08-09T16:34:58.326Z,2.28
2022-08-09T16:37:56.084Z,4.18
2022-08-09T16:40:20.639Z,1.75
2022-08-09T16:43:12.414Z,2.20
2022-08-09T16:45:44.297Z,1.20
2022-08-09T16:48:39.805Z,1.95
2022-08-09T16:51:08.152Z,1.48
2022-08-09T16:54:25.103Z,1.77
2022-08-09T16:56:34.010Z,2.40
2022-08-09T16:59:06.473Z,2.78
2022-08-09T17:01:35.579Z,0.82
2022-08-09T17:04:06.668Z,2.33
2022-08-09T17:08:40.154Z,1.17
2022-08-09T17:09:45.901Z,3.03
2022-08-09T17:12:09.466Z,1.73
2022-08-09T17:14:36.751Z,2.80
2022-08-09T17:17:17.253Z,3.42
2022-08-09T17:20:32.632Z,1.77
2022-08-09T17:22:49.847Z,1.35
2022-08-09T17:25:22.295Z,1.52
2022-08-09T17:27:54.558Z,2.45
2022-08-09T17:30:28.334Z,1.48
2022-08-09T17:33:05.225Z,1.40
2022-08-09T17:35:49.129Z,1.35
2022-08-09T17:38:29.271Z,3.08
2022-08-09T17:41:02.838Z,1.90
2022-08-09T17:43:34.509Z,2.92
2022-08-09T17:46:10.012Z,1.25
2022-08-09T17:48:51.709Z,0.88
2022-08-09T17:51:20.861Z,1.02
2022-08-09T17:53:54.709Z,2.08
2022-08-09T17:56:29.265Z,0.90
2022-08-09T17:59:03.146Z,1.30
2022-08-09T18:02:03.252Z,2.60
2022-08-09T18:04:26.652Z,1.85
2022-08-09T18:06:56.297Z,1.13
2022-08-09T18:09:40.191Z,1.48
2022-08-09T18:12:20.143Z,2.50
2022-08-09T18:14:54.187Z,3.00
2022-08-09T18:18:01.770Z,2.10
2022-08-09T18:20:54.790Z,1.73
2022-08-09T18:23:05.549Z,1.67
2022-08-09T18:25:52.597Z,2.50
2022-08-09T18:30:35.403Z,3.25
2022-08-09T18:31:14.191Z,1.00
2022-08-09T18:33:53.691Z,0.90
2022-08-09T18:36:25.822Z,1.35
2022-08-09T18:39:05.276Z,1.98
2022-08-09T18:41:34.377Z,1.92
2022-08-09T18:44:12.992Z,1.02
2022-08-09T18:46:51.158Z,2.00
2022-08-09T18:49:28.597Z,3.63
2022-08-09T18:51:59.722Z,3.08
2022-08-09T18:54:29.897Z,1.90
2022-08-09T18:57:05.193Z,4.07
2022-08-09T18:59:48.837Z,4.80
2022-08-09T19:02:19.796Z,2.33
2022-08-09T19:05:15.325Z,2.20
2022-08-09T19:07:35.221Z,1.25
2022-08-09T19:10:14.533Z,1.63
2022-08-09T19:12:52.990Z,2.13
2022-08-09T19:15:32.080Z,3.35
2022-08-09T19:17:59.893Z,4.45
2022-08-09T19:20:34.056Z,1.90
2022-08-09T19:23:05.470Z,1.85
2022-08-09T19:26:01.330Z,3.33
2022-08-09T19:28:28.910Z,1.90
2022-08-09T19:30:56.519Z,3.55
2022-08-09T19:33:24.329Z,1.73
2022-08-09T19:35:56.931Z,1.23
2022-08-09T19:38:27.234Z,1.42
2022-08-09T19:40:57.536Z,1.60
2022-08-09T19:44:01.304Z,2.67
2022-08-09T19:46:17.214Z,1.90
2022-08-09T19:50:04.605Z,2.00
2022-08-09T19:51:55.936Z,1.45
2022-08-09T19:54:27.434Z,1.80
2022-08-09T19:56:59.027Z,1.85
2022-08-09T19:59:58.966Z,1.55
2022-08-09T20:04:16.790Z,2.20
2022-08-09T20:05:10.332Z,1.52
2022-08-09T20:07:59.760Z,1.80
2022-08-09T20:10:36.408Z,1.45
2022-08-09T20:13:06.607Z,2.35
2022-08-09T20:16:35.698Z,1.27
2022-08-09T20:18:27.969Z,2.05
2022-08-09T20:20:59.022Z,4.63
2022-08-09T20:23:39.305Z,2.72
2022-08-09T20:26:09.743Z,5.55
2022-08-09T20:28:48.616Z,2.30
2022-08-09T20:31:17.843Z,5.72
2022-08-09T20:33:45.718Z,5.03
2022-08-09T20:36:13.839Z,5.00
2022-08-09T20:39:18.595Z,2.15
2022-08-09T20:41:35.579Z,8.45
2022-08-09T20:44:10.392Z,6.57
2022-08-09T20:46:44.331Z,2.75
2022-08-09T20:49:16.654Z,7.55
2022-08-09T20:51:50.762Z,3.35
2022-08-09T20:54:18.824Z,7.93
2022-08-09T20:56:49.440Z,1.75
2022-08-09T20:59:50.365Z,3.67
2022-08-09T21:02:05.528Z,3.90
2022-08-09T21:05:55.151Z,1.55
2022-08-09T21:07:24.921Z,2.15
2022-08-09T21:09:58.755Z,1.83
2022-08-09T21:15:17.678Z,2.25
2022-08-09T21:18:21.268Z,1.77
2022-08-09T21:20:41.190Z,3.33
2022-08-09T21:23:13.216Z,2.05
2022-08-09T21:25:56.312Z,4.22
2022-08-09T21:28:34.576Z,2.58
2022-08-09T21:31:17.263Z,1.50
2022-08-09T21:33:50.556Z,2.65
2022-08-09T21:36:23.462Z,2.63
2022-08-09T21:38:57.430Z,3.58
2022-08-09T21:42:03.690Z,1.67
2022-08-09T21:44:33.238Z,2.60
2022-08-09T21:47:08.507Z,5.88
2022-08-09T21:49:43.137Z,4.07
2022-08-09T21:52:16.525Z,1.20
2022-08-09T21:55:02.778Z,4.85
2022-08-09T21:57:59.182Z,2.05
2022-08-09T22:00:33.224Z,2.58
2022-08-09T22:03:19.118Z,0.90
2022-08-09T22:05:52.991Z,1.55
2022-08-09T22:08:23.041Z,1.90
2022-08-09T22:11:48.842Z,3.97
2022-08-09T22:13:43.983Z,2.80
2022-08-09T22:16:11.918Z,3.03
2022-08-09T22:18:53.157Z,2.20
2022-08-09T22:21:50.136Z,2.05
2022-08-09T22:24:24.237Z,2.67
2022-08-09T22:26:55.539Z,2.03
2022-08-09T22:29:27.037Z,2.05
2022-08-09T22:32:00.235Z,1.02
2022-08-09T22:34:28.577Z,1.60
2022-08-09T22:36:59.643Z,1.92
2022-08-09T22:39:57.048Z,4.07
2022-08-09T22:42:22.210Z,1.48
2022-08-09T22:45:00.243Z,2.38
2022-08-09T22:48:13.620Z,1.45
2022-08-09T22:50:31.888Z,0.98
2022-08-09T22:53:03.546Z,2.63
2022-08-09T22:56:06.384Z,1.50
2022-08-09T22:58:32.268Z,2.83
2022-08-09T23:01:06.189Z,1.55
2022-08-09T23:04:03.596Z,2.03
2022-08-09T23:06:35.635Z,1.30
2022-08-09T23:09:06.972Z,3.17
2022-08-09T23:11:35.262Z,3.75
2022-08-09T23:14:03.613Z,3.42
2022-08-09T23:16:31.955Z,1.70
2022-08-09T23:18:59.578Z,2.15
2022-08-09T23:21:33.505Z,3.08
2022-08-09T23:24:06.574Z,1.88
2022-08-09T23:26:38.692Z,2.05
2022-08-09T23:29:13.626Z,3.72
2022-08-09T23:31:42.701Z,2.33
2022-08-09T23:34:10.481Z,3.97
2022-08-09T23:36:37.785Z,2.47
2022-08-09T23:39:08.601Z,2.05
2022-08-09T23:41:38.488Z,1.50
2022-08-09T23:44:08.027Z,3.65
2022-08-09T23:46:35.353Z,2.15
2022-08-09T23:49:05.632Z,2.38
2022-08-09T23:51:35.013Z,1.73
2022-08-09T23:54:04.378Z,2.50
2022-08-09T23:56:53.058Z,2.25
2022-08-09T23:59:44.111Z,2.13
